Time;durP1;ratioP1;P1;durP2;ratioP2;P2;SDS_P1;SDS_P2;PMS_P1;PMS_P2;Temp;Humidity;BMP_temperature;BMP_pressure;BME280_temperature;BME280_humidity;BME280_pressure;Samples;Min_cycle;Max_cycle;Signal;HPM_P1;HPM_P2
2023/09/27 00:21:05;;;;;;;29.88;24.70;;;16.40;99.90;;;;;;4588134;19;20037;-69
2023/09/27 00:22:41;;;;;;;31.02;24.30;;;16.40;99.90;;;;;;4595078;19;20066;-69
2023/09/27 00:24:16;;;;;;;29.33;23.70;;;16.40;99.90;;;;;;4596112;19;20033;-69
2023/09/27 00:25:51;;;;;;;31.98;26.48;;;16.40;99.90;;;;;;4596283;19;20002;-69
2023/09/27 00:27:26;;;;;;;31.17;25.35;;;16.40;99.90;;;;;;4596346;19;20006;-69
2023/09/27 00:29:01;;;;;;;28.73;24.38;;;16.40;99.90;;;;;;4595975;19;20303;-69
2023/09/27 00:30:35;;;;;;;28.48;25.00;;;16.40;99.90;;;;;;4594812;19;20003;-69
2023/09/27 00:32:10;;;;;;;31.75;25.70;;;16.40;99.90;;;;;;4596206;19;20014;-69
2023/09/27 00:33:44;;;;;;;29.42;24.55;;;16.40;99.90;;;;;;4595828;19;20321;-69
2023/09/27 00:35:22;;;;;;;31.40;25.05;;;16.40;99.90;;;;;;4595882;19;20016;-69
2023/09/27 00:36:58;;;;;;;28.50;24.13;;;16.40;99.90;;;;;;4595897;19;20003;-70
2023/09/27 00:38:33;;;;;;;26.02;22.45;;;16.40;99.90;;;;;;4595556;19;20486;-69
2023/09/27 00:40:10;;;;;;;25.08;20.52;;;16.40;99.90;;;;;;4595208;19;20073;-69
2023/09/27 00:41:47;;;;;;;23.13;20.48;;;16.40;99.90;;;;;;4595793;19;20006;-69
2023/09/27 00:43:28;;;;;;;24.40;21.80;;;16.40;99.90;;;;;;4594581;19;20003;-69
2023/09/27 00:45:03;;;;;;;23.70;20.95;;;16.40;99.90;;;;;;4594628;19;19994;-69
2023/09/27 00:46:38;;;;;;;23.00;20.55;;;16.40;99.90;;;;;;4594323;19;20073;-69
2023/09/27 00:48:12;;;;;;;23.63;20.75;;;16.40;99.90;;;;;;4594221;19;19999;-69
2023/09/27 00:49:46;;;;;;;21.90;19.23;;;16.40;99.90;;;;;;4595241;19;19994;-69
2023/09/27 00:51:22;;;;;;;20.83;18.67;;;16.40;99.90;;;;;;4594265;19;20003;-69
2023/09/27 00:52:56;;;;;;;22.23;18.95;;;16.40;99.90;;;;;;4595324;19;20006;-69
2023/09/27 00:54:30;;;;;;;23.65;19.60;;;16.40;99.90;;;;;;4595462;19;19994;-69
2023/09/27 00:56:06;;;;;;;22.33;19.92;;;16.40;99.90;;;;;;4594122;19;20015;-69
2023/09/27 00:57:42;;;;;;;23.27;20.60;;;16.40;99.90;;;;;;4593996;19;20070;-69
2023/09/27 00:59:17;;;;;;;22.05;19.73;;;16.40;99.90;;;;;;4592982;19;19998;-69
2023/09/27 01:00:52;;;;;;;21.23;19.00;;;16.40;99.90;;;;;;4593649;19;20077;-69
2023/09/27 01:02:27;;;;;;;21.10;17.80;;;16.40;99.90;;;;;;4593970;19;20006;-69
2023/09/27 01:04:01;;;;;;;23.08;20.38;;;16.40;99.90;;;;;;4594897;19;20025;-69
2023/09/27 01:05:36;;;;;;;21.00;18.52;;;16.40;99.90;;;;;;4594177;19;20096;-69
2023/09/27 01:07:10;;;;;;;21.63;18.88;;;16.30;99.90;;;;;;4593982;19;20007;-69
2023/09/27 01:08:45;;;;;;;21.05;18.55;;;16.30;99.90;;;;;;4594068;19;20002;-69
2023/09/27 01:10:22;;;;;;;22.40;19.35;;;16.30;99.90;;;;;;4592156;19;20302;-69
2023/09/27 01:11:56;;;;;;;22.65;19.83;;;16.30;99.90;;;;;;4595361;19;19995;-69
2023/09/27 01:13:30;;;;;;;23.73;19.80;;;16.30;99.90;;;;;;4595065;19;20342;-69
2023/09/27 01:15:06;;;;;;;21.10;18.88;;;16.30;99.90;;;;;;4593568;19;20015;-69
2023/09/27 01:16:41;;;;;;;22.80;19.90;;;16.30;99.90;;;;;;4593576;19;20007;-69
2023/09/27 01:18:16;;;;;;;21.00;18.42;;;16.30;99.90;;;;;;4594581;19;20439;-69
2023/09/27 01:19:53;;;;;;;19.98;17.83;;;16.30;99.90;;;;;;4591741;19;20357;-69
2023/09/27 01:21:28;;;;;;;21.55;19.23;;;16.30;99.90;;;;;;4594612;19;20292;-69
2023/09/27 01:23:07;;;;;;;19.80;17.70;;;16.30;99.90;;;;;;4595102;19;20437;-69
2023/09/27 01:24:43;;;;;;;20.65;18.40;;;16.30;99.90;;;;;;4593583;19;20011;-69
2023/09/27 01:26:18;;;;;;;20.90;18.58;;;16.20;99.90;;;;;;4593384;19;20006;-69
2023/09/27 01:27:52;;;;;;;21.13;18.80;;;16.30;99.90;;;;;;4593550;19;20030;-69
2023/09/27 01:29:28;;;;;;;21.40;19.05;;;16.30;99.90;;;;;;4593650;19;20078;-69
2023/09/27 01:31:02;;;;;;;21.20;18.52;;;16.30;99.90;;;;;;4591943;19;20030;-69
2023/09/27 01:32:37;;;;;;;21.00;18.80;;;16.30;99.90;;;;;;4594211;19;19999;-69
2023/09/27 01:34:12;;;;;;;21.20;18.35;;;16.30;99.90;;;;;;4594739;19;19998;-69
2023/09/27 01:35:46;;;;;;;20.58;18.48;;;16.30;99.90;;;;;;4594570;19;20002;-69
2023/09/27 01:37:20;;;;;;;21.63;19.35;;;16.20;99.90;;;;;;4594568;19;20019;-69
2023/09/27 01:38:56;;;;;;;24.35;20.63;;;16.20;99.90;;;;;;4594041;19;20070;-69
2023/09/27 01:40:32;;;;;;;25.92;21.90;;;16.30;99.90;;;;;;4593626;19;20306;-69
2023/09/27 01:42:07;;;;;;;26.48;22.13;;;16.20;99.90;;;;;;4592975;19;20085;-69
2023/09/27 01:43:43;;;;;;;30.30;24.40;;;16.20;99.90;;;;;;4594426;19;20294;-69
2023/09/27 01:45:19;;;;;;;29.85;24.05;;;16.20;99.90;;;;;;4594347;19;20002;-69
2023/09/27 01:46:54;;;;;;;24.23;21.05;;;16.20;99.90;;;;;;4594429;19;20009;-69
2023/09/27 01:48:29;;;;;;;27.80;21.02;;;16.20;99.90;;;;;;4594379;19;20011;-69
2023/09/27 01:50:03;;;;;;;25.10;21.10;;;16.20;99.90;;;;;;4593917;19;20002;-69
2023/09/27 01:51:37;;;;;;;24.33;20.52;;;16.20;99.90;;;;;;4594249;19;19999;-69
2023/09/27 01:53:12;;;;;;;27.73;23.38;;;16.20;99.90;;;;;;4594309;19;20074;-69
2023/09/27 01:54:47;;;;;;;27.35;23.10;;;16.20;99.90;;;;;;4594461;19;20448;-69
2023/09/27 01:56:20;;;;;;;26.58;21.88;;;16.20;99.90;;;;;;4594142;19;20425;-69
2023/09/27 01:57:58;;;;;;;27.13;22.25;;;16.20;99.90;;;;;;4592859;19;20306;-69
2023/09/27 01:59:32;;;;;;;27.35;22.38;;;16.20;99.90;;;;;;4592792;19;19999;-69
2023/09/27 02:01:06;;;;;;;26.23;22.75;;;16.10;99.90;;;;;;4593026;19;20414;-69
2023/09/27 02:02:50;;;;;;;26.65;22.08;;;16.20;99.90;;;;;;4594765;19;20397;-69
2023/09/27 02:04:26;;;;;;;24.60;21.15;;;16.20;99.90;;;;;;4592716;19;20041;-69
2023/09/27 02:06:01;;;;;;;24.45;20.17;;;16.20;99.90;;;;;;4593502;19;20001;-69
2023/09/27 02:07:39;;;;;;;22.85;19.30;;;16.20;99.90;;;;;;4594025;19;20013;-69
2023/09/27 02:09:14;;;;;;;27.10;22.45;;;16.10;99.90;;;;;;4592568;19;20030;-69
2023/09/27 02:10:51;;;;;;;25.60;21.90;;;16.10;99.90;;;;;;4592468;19;20302;-69
2023/09/27 02:12:26;;;;;;;25.27;21.48;;;16.10;99.90;;;;;;4592594;19;20021;-70
2023/09/27 02:14:03;;;;;;;25.23;21.65;;;16.10;99.90;;;;;;4593720;19;20016;-69
2023/09/27 02:15:39;;;;;;;24.38;20.67;;;16.10;99.90;;;;;;4592315;19;20022;-69
2023/09/27 02:17:14;;;;;;;26.60;21.23;;;16.20;99.90;;;;;;4593614;19;20031;-69
2023/09/27 02:18:49;;;;;;;23.90;20.88;;;16.20;99.90;;;;;;4593399;19;20017;-69
2023/09/27 02:20:24;;;;;;;26.20;22.30;;;16.20;99.90;;;;;;4592964;19;20021;-69
2023/09/27 02:22:01;;;;;;;25.40;21.50;;;16.10;99.90;;;;;;4593485;19;20015;-69
2023/09/27 02:23:35;;;;;;;24.52;21.92;;;16.20;99.90;;;;;;4593850;19;20002;-69
2023/09/27 02:25:13;;;;;;;26.63;22.83;;;16.20;99.90;;;;;;4593827;19;20310;-70
2023/09/27 02:26:50;;;;;;;27.42;23.80;;;16.20;99.90;;;;;;4592545;19;20010;-69
2023/09/27 02:28:24;;;;;;;24.02;20.92;;;16.20;99.90;;;;;;4593160;19;20021;-69
2023/09/27 02:29:58;;;;;;;26.20;22.92;;;16.20;99.90;;;;;;4593111;19;19998;-69
2023/09/27 02:31:37;;;;;;;25.95;22.52;;;16.20;99.90;;;;;;4593782;19;20320;-69
2023/09/27 02:33:11;;;;;;;27.02;22.17;;;16.20;99.90;;;;;;4593441;19;20007;-69
2023/09/27 02:34:46;;;;;;;25.90;22.73;;;16.20;99.90;;;;;;4593422;19;20074;-69
2023/09/27 02:36:22;;;;;;;23.30;20.80;;;16.20;99.90;;;;;;4593405;19;20007;-69
2023/09/27 02:37:56;;;;;;;25.45;21.63;;;16.20;99.90;;;;;;4593278;19;20003;-69
2023/09/27 02:39:30;;;;;;;25.42;22.38;;;16.20;99.90;;;;;;4592686;19;20003;-69
2023/09/27 02:41:06;;;;;;;24.63;20.98;;;16.20;99.90;;;;;;4592040;19;20040;-69
2023/09/27 02:42:41;;;;;;;24.73;20.92;;;16.20;99.90;;;;;;4593203;19;20006;-69
2023/09/27 02:44:15;;;;;;;25.63;22.73;;;16.20;99.90;;;;;;4593237;19;20010;-69
2023/09/27 02:45:50;;;;;;;25.25;21.73;;;16.20;99.90;;;;;;4593227;19;20006;-70
2023/09/27 02:47:24;;;;;;;24.42;21.30;;;16.20;99.90;;;;;;4593068;19;20011;-69
2023/09/27 02:48:59;;;;;;;23.63;21.05;;;16.20;99.90;;;;;;4593099;19;20324;-69
2023/09/27 02:50:34;;;;;;;25.85;22.75;;;16.20;99.90;;;;;;4592371;19;20010;-69
2023/09/27 02:52:10;;;;;;;24.10;21.52;;;16.20;99.90;;;;;;4593023;19;20002;-69
2023/09/27 02:53:44;;;;;;;26.00;22.55;;;16.20;99.90;;;;;;4593271;19;20405;-69
2023/09/27 02:55:21;;;;;;;24.33;21.27;;;16.20;99.90;;;;;;4591912;19;20007;-69
2023/09/27 02:56:54;;;;;;;25.58;21.65;;;16.20;99.90;;;;;;4592590;19;19998;-69
2023/09/27 02:58:28;;;;;;;24.00;21.38;;;16.20;99.90;;;;;;4593197;19;19999;-69
2023/09/27 03:00:06;;;;;;;24.20;21.45;;;16.20;99.90;;;;;;4592486;19;20002;-69
2023/09/27 03:01:43;;;;;;;24.20;21.52;;;16.20;99.90;;;;;;4590711;19;20025;-69
2023/09/27 03:03:19;;;;;;;25.88;22.80;;;16.20;99.90;;;;;;4592563;19;20007;-69
2023/09/27 03:04:58;;;;;;;25.30;21.73;;;16.30;99.90;;;;;;4591493;19;20023;-69
2023/09/27 03:06:31;;;;;;;26.20;23.17;;;16.30;99.90;;;;;;4591465;19;20002;-69
2023/09/27 03:08:05;;;;;;;26.77;23.25;;;16.30;99.90;;;;;;4592304;19;20002;-69
2023/09/27 03:09:41;;;;;;;25.23;22.40;;;16.30;99.90;;;;;;4592963;19;20002;-69
2023/09/27 03:11:16;;;;;;;24.83;21.52;;;16.30;99.90;;;;;;4592665;19;20002;-69
2023/09/27 03:12:51;;;;;;;28.75;24.13;;;16.30;99.90;;;;;;4591549;19;20025;-69
2023/09/27 03:14:28;;;;;;;24.55;21.80;;;16.30;99.90;;;;;;4592368;19;20006;-69
2023/09/27 03:16:04;;;;;;;26.73;23.17;;;16.30;99.90;;;;;;4592528;19;20024;-69
2023/09/27 03:17:38;;;;;;;26.92;24.02;;;16.30;99.90;;;;;;4592539;19;19999;-69
2023/09/27 03:19:15;;;;;;;27.30;24.10;;;16.30;99.90;;;;;;4592277;19;20033;-69
2023/09/27 03:20:51;;;;;;;26.80;23.80;;;16.30;99.90;;;;;;4591310;19;20014;-69
2023/09/27 03:22:25;;;;;;;28.65;25.58;;;16.30;99.90;;;;;;4592469;19;20014;-69
2023/09/27 03:24:00;;;;;;;27.55;24.52;;;16.40;99.90;;;;;;4592667;19;20005;-69
2023/09/27 03:25:35;;;;;;;29.25;25.15;;;16.40;99.90;;;;;;4592278;19;20011;-69
2023/09/27 03:27:10;;;;;;;29.85;26.00;;;16.40;99.90;;;;;;4592366;19;20002;-69
2023/09/27 03:28:45;;;;;;;27.15;24.13;;;16.40;99.90;;;;;;4592640;19;20014;-69
2023/09/27 03:30:19;;;;;;;28.42;25.40;;;16.40;99.90;;;;;;4592006;19;20007;-69
2023/09/27 03:31:54;;;;;;;30.00;25.50;;;16.50;99.90;;;;;;4592245;19;20016;-69
2023/09/27 03:33:30;;;;;;;29.42;26.23;;;16.50;99.90;;;;;;4591256;19;20010;-69
2023/09/27 03:35:05;;;;;;;31.38;28.08;;;16.50;99.90;;;;;;4592462;19;20422;-69
2023/09/27 03:36:44;;;;;;;30.30;26.42;;;16.50;99.90;;;;;;4592484;19;20037;-69
2023/09/27 03:38:19;;;;;;;30.88;26.98;;;16.50;99.90;;;;;;4592188;19;20006;-69
2023/09/27 03:39:55;;;;;;;29.67;26.48;;;16.50;99.90;;;;;;4590991;19;20019;-69
2023/09/27 03:41:30;;;;;;;30.50;27.20;;;16.50;99.90;;;;;;4591044;19;20029;-69
2023/09/27 03:43:05;;;;;;;32.15;28.65;;;16.50;99.90;;;;;;4591782;19;20014;-70
2023/09/27 03:44:39;;;;;;;31.13;27.58;;;16.60;99.90;;;;;;4592011;19;20021;-69
2023/09/27 03:46:13;;;;;;;29.55;26.42;;;16.60;99.90;;;;;;4592020;19;20003;-69
2023/09/27 03:47:49;;;;;;;31.52;28.15;;;16.60;99.90;;;;;;4590677;19;20341;-69
2023/09/27 03:49:24;;;;;;;32.35;28.25;;;16.60;99.90;;;;;;4591692;19;19999;-69
2023/09/27 03:50:59;;;;;;;30.35;27.05;;;16.70;99.90;;;;;;4590791;19;20029;-69
2023/09/27 03:52:35;;;;;;;31.60;28.23;;;16.70;99.90;;;;;;4590856;19;20014;-69
2023/09/27 03:54:09;;;;;;;31.13;27.60;;;16.70;99.90;;;;;;4591515;19;20462;-69
2023/09/27 03:55:43;;;;;;;30.42;27.23;;;16.80;99.90;;;;;;4592153;19;20010;-69
2023/09/27 03:57:18;;;;;;;31.38;27.73;;;16.80;99.90;;;;;;4591229;19;20030;-69
2023/09/27 03:58:52;;;;;;;31.52;28.13;;;16.80;99.90;;;;;;4591176;19;19998;-69
2023/09/27 04:00:26;;;;;;;31.00;27.73;;;16.90;99.90;;;;;;4591114;19;20007;-69
2023/09/27 04:02:01;;;;;;;31.27;27.65;;;16.80;99.90;;;;;;4591816;19;20074;-70
2023/09/27 04:03:36;;;;;;;30.75;27.00;;;16.90;99.90;;;;;;4592001;19;20003;-69
2023/09/27 04:05:11;;;;;;;29.88;26.80;;;16.90;99.90;;;;;;4592028;19;20074;-69
2023/09/27 04:06:47;;;;;;;32.05;28.13;;;16.80;99.90;;;;;;4592039;19;20424;-69
2023/09/27 04:08:21;;;;;;;31.80;28.50;;;16.80;99.90;;;;;;4591681;19;19995;-69
2023/09/27 04:09:55;;;;;;;31.25;28.00;;;16.80;99.90;;;;;;4591556;19;20021;-69
2023/09/27 04:11:31;;;;;;;31.40;27.42;;;16.80;99.90;;;;;;4591702;19;20002;-69
2023/09/27 04:13:05;;;;;;;33.80;30.10;;;16.80;99.90;;;;;;4590472;19;20002;-69
2023/09/27 04:14:39;;;;;;;29.38;26.33;;;16.80;99.90;;;;;;4591202;19;20009;-70
2023/09/27 04:16:16;;;;;;;30.10;26.90;;;16.80;99.90;;;;;;4590286;19;20005;-69
2023/09/27 04:17:50;;;;;;;28.33;25.30;;;16.80;99.90;;;;;;4591452;19;20314;-69
2023/09/27 04:19:24;;;;;;;31.45;25.95;;;17.10;99.90;;;;;;4590753;19;19999;-69
2023/09/27 04:21:12;;;;;;;27.73;24.15;;;17.60;99.90;;;;;;4590332;19;20014;-69
2023/09/27 04:22:47;;;;;;;29.08;25.10;;;18.00;99.90;;;;;;4590375;19;20013;-69
2023/09/27 04:24:21;;;;;;;27.15;24.20;;;18.30;99.90;;;;;;4590990;19;19998;-69
2023/09/27 04:25:57;;;;;;;28.30;24.25;;;18.50;99.90;;;;;;4591442;19;20009;-71
2023/09/27 04:27:38;;;;;;;26.90;22.92;;;18.70;99.90;;;;;;4590816;19;19998;-70
2023/09/27 04:29:26;;;;;;;25.55;22.73;;;18.90;99.90;;;;;;4589640;19;20363;-70
2023/09/27 04:31:03;;;;;;;26.45;22.92;;;19.10;99.90;;;;;;4589064;19;20069;-69
2023/09/27 04:32:37;;;;;;;24.65;22.15;;;19.20;99.90;;;;;;4588599;19;20429;-70
2023/09/27 04:34:11;;;;;;;26.15;22.77;;;19.40;99.90;;;;;;4589866;19;20015;-70
2023/09/27 04:35:50;;;;;;;28.17;24.83;;;19.50;99.90;;;;;;4590692;19;20314;-69
2023/09/27 04:37:36;;;;;;;26.55;23.65;;;19.60;99.90;;;;;;4589663;19;20297;-70
2023/09/27 04:39:32;;;;;;;24.40;21.67;;;19.70;99.90;;;;;;4588485;19;20028;-69
2023/09/27 04:41:33;;;;;;;23.50;21.02;;;19.80;99.90;;;;;;4587282;19;20498;-69
2023/09/27 04:43:30;;;;;;;24.70;22.10;;;19.80;99.90;;;;;;4589094;19;20010;-70
2023/09/27 04:45:26;;;;;;;23.55;21.15;;;19.90;99.90;;;;;;4592091;19;20078;-70
2023/09/27 04:47:26;;;;;;;23.15;20.65;;;19.90;99.90;;;;;;4595675;19;20006;-70
2023/09/27 04:49:16;;;;;;;23.08;20.58;;;20.00;99.90;;;;;;4594417;19;20284;-69
2023/09/27 04:51:06;;;;;;;23.63;21.17;;;20.00;99.90;;;;;;4592748;19;20027;-69
2023/09/27 04:53:07;;;;;;;24.50;21.55;;;20.00;99.90;;;;;;4593343;19;20303;-69
2023/09/27 04:55:06;;;;;;;23.13;20.73;;;20.10;99.90;;;;;;4592167;19;20021;-70
2023/09/27 04:57:07;;;;;;;24.05;21.52;;;20.10;99.90;;;;;;4594067;19;20023;-69
2023/09/27 04:58:53;;;;;;;21.77;19.60;;;20.10;99.90;;;;;;4593817;19;20306;-70
2023/09/27 05:00:52;;;;;;;22.70;20.10;;;20.10;99.90;;;;;;4592263;19;20441;-70
2023/09/27 05:02:54;;;;;;;23.92;21.55;;;20.20;99.90;;;;;;4593947;19;20012;-70
2023/09/27 05:04:47;;;;;;;24.02;21.63;;;20.20;99.90;;;;;;4593803;19;20011;-69
2023/09/27 05:06:38;;;;;;;23.30;20.92;;;20.20;99.90;;;;;;4593617;19;20010;-70
2023/09/27 05:08:38;;;;;;;23.75;21.35;;;20.20;99.90;;;;;;4593311;19;20015;-70
2023/09/27 05:10:39;;;;;;;23.58;21.05;;;20.20;99.90;;;;;;4594394;19;20010;-70
2023/09/27 05:12:29;;;;;;;24.58;21.98;;;20.30;99.90;;;;;;4593738;19;20421;-70
2023/09/27 05:14:22;;;;;;;25.42;22.77;;;20.30;99.90;;;;;;4594572;19;20013;-70
2023/09/27 05:16:23;;;;;;;23.60;21.15;;;20.20;99.90;;;;;;4593611;19;20011;-70
2023/09/27 05:18:13;;;;;;;24.25;21.77;;;20.30;99.90;;;;;;4593878;19;20426;-70
2023/09/27 05:20:14;;;;;;;24.95;22.35;;;20.30;99.90;;;;;;4591521;19;20010;-70
2023/09/27 05:22:07;;;;;;;26.27;22.33;;;20.30;99.90;;;;;;4593541;19;20002;-70
2023/09/27 05:23:54;;;;;;;23.70;21.17;;;20.30;99.90;;;;;;4593826;19;20284;-70
2023/09/27 05:25:57;;;;;;;25.30;21.77;;;20.30;99.90;;;;;;4591703;19;20017;-70
2023/09/27 05:28:04;;;;;;;25.63;22.23;;;20.30;99.90;;;;;;4591681;19;20053;-69
2023/09/27 05:30:07;;;;;;;25.73;23.02;;;20.30;99.90;;;;;;4594373;19;20010;-70
2023/09/27 05:32:09;;;;;;;25.48;22.75;;;20.30;99.90;;;;;;4594514;19;20059;-69
2023/09/27 05:34:13;;;;;;;25.23;21.50;;;20.40;99.90;;;;;;4594671;19;19999;-70
2023/09/27 05:36:08;;;;;;;25.08;22.45;;;20.40;99.90;;;;;;4592032;19;20010;-69
2023/09/27 05:38:10;;;;;;;25.30;22.65;;;20.50;99.90;;;;;;4592334;19;20007;-70
2023/09/27 05:39:53;;;;;;;25.02;22.45;;;20.60;99.90;;;;;;4590864;19;20003;-70
2023/09/27 05:41:27;;;;;;;24.50;21.90;;;20.70;99.90;;;;;;4592191;19;20411;-69
2023/09/27 05:43:03;;;;;;;23.20;20.73;;;20.80;99.90;;;;;;4592222;19;20321;-69
2023/09/27 05:44:38;;;;;;;23.20;20.63;;;20.90;99.90;;;;;;4592386;19;20002;-69
2023/09/27 05:46:12;;;;;;;23.70;21.20;;;21.00;99.90;;;;;;4592344;19;20382;-69
2023/09/27 05:47:47;;;;;;;24.02;21.48;;;21.00;99.90;;;;;;4592388;19;20014;-69
2023/09/27 05:49:24;;;;;;;25.10;22.50;;;21.10;99.90;;;;;;4592199;19;20019;-69
2023/09/27 05:50:58;;;;;;;24.42;21.88;;;21.10;99.90;;;;;;4591047;19;20010;-69
2023/09/27 05:52:36;;;;;;;24.48;21.73;;;21.20;99.90;;;;;;4592244;19;20003;-70
2023/09/27 05:54:10;;;;;;;24.77;21.23;;;21.30;99.90;;;;;;4592148;19;20334;-69
2023/09/27 05:55:47;;;;;;;22.75;20.40;;;21.30;99.90;;;;;;4591348;19;20440;-69
2023/09/27 05:57:23;;;;;;;24.38;21.77;;;21.40;99.90;;;;;;4591863;19;20011;-70
2023/09/27 05:58:59;;;;;;;23.35;21.05;;;21.50;99.90;;;;;;4591727;19;20457;-70
2023/09/27 06:00:38;;;;;;;23.48;20.98;;;21.50;99.90;;;;;;4591221;19;20314;-70
2023/09/27 06:02:16;;;;;;;24.23;21.27;;;21.50;99.90;;;;;;4591911;19;20017;-70
2023/09/27 06:03:52;;;;;;;23.83;21.33;;;21.60;99.90;;;;;;4591999;19;20010;-70
2023/09/27 06:05:26;;;;;;;22.95;20.55;;;21.60;99.90;;;;;;4591942;19;20019;-70
2023/09/27 06:07:01;;;;;;;22.95;20.75;;;21.60;99.90;;;;;;4592133;19;20117;-69
2023/09/27 06:08:35;;;;;;;24.23;21.50;;;21.70;99.90;;;;;;4591637;19;20002;-70
2023/09/27 06:10:11;;;;;;;22.40;20.15;;;21.70;99.90;;;;;;4591312;19;20026;-70
2023/09/27 06:11:46;;;;;;;24.77;22.27;;;21.70;99.90;;;;;;4591825;19;20110;-70
2023/09/27 06:13:20;;;;;;;29.38;26.63;;;21.70;99.90;;;;;;4591434;19;20002;-70
2023/09/27 06:14:56;;;;;;;31.05;27.98;;;20.90;99.90;;;;;;4591677;19;20425;-69
2023/09/27 06:16:32;;;;;;;33.42;30.15;;;19.30;99.90;;;;;;4591053;19;20005;-70
2023/09/27 06:18:06;;;;;;;34.95;31.45;;;18.50;99.90;;;;;;4591009;19;20006;-69
2023/09/27 06:19:40;;;;;;;35.70;32.17;;;18.20;99.90;;;;;;4590465;19;20021;-69
2023/09/27 06:21:15;;;;;;;37.05;33.22;;;18.00;99.90;;;;;;4590207;19;20094;-70
2023/09/27 06:22:50;;;;;;;35.85;32.38;;;18.00;99.90;;;;;;4591279;19;20007;-70
2023/09/27 06:24:25;;;;;;;36.20;32.65;;;17.90;99.90;;;;;;4591383;19;20002;-71
2023/09/27 06:26:00;;;;;;;38.60;34.70;;;17.90;99.90;;;;;;4591043;19;20007;-69
2023/09/27 06:27:35;;;;;;;35.60;31.85;;;17.90;99.90;;;;;;4590752;19;20066;-70
2023/09/27 06:29:09;;;;;;;36.08;32.45;;;17.90;99.90;;;;;;4590850;19;20002;-69
2023/09/27 06:30:45;;;;;;;38.90;34.97;;;17.90;99.90;;;;;;4589588;19;20009;-69
2023/09/27 06:32:22;;;;;;;36.33;32.67;;;17.90;99.90;;;;;;4590424;19;20009;-69
2023/09/27 06:34:00;;;;;;;37.40;33.60;;;17.90;99.90;;;;;;4590844;19;20002;-69
2023/09/27 06:35:36;;;;;;;38.05;34.33;;;18.00;99.90;;;;;;4590409;19;20021;-69
2023/09/27 06:37:10;;;;;;;38.67;34.85;;;18.00;99.90;;;;;;4590365;19;20324;-69
2023/09/27 06:38:46;;;;;;;40.10;36.03;;;18.00;99.90;;;;;;4590609;19;20009;-69
2023/09/27 06:40:23;;;;;;;37.97;34.17;;;18.00;99.90;;;;;;4589810;19;20010;-70
2023/09/27 06:41:57;;;;;;;40.60;36.50;;;18.00;99.90;;;;;;4590648;19;20007;-70
2023/09/27 06:43:31;;;;;;;39.53;35.58;;;18.00;99.90;;;;;;4590353;19;20099;-69
2023/09/27 06:45:07;;;;;;;42.53;38.15;;;18.10;99.90;;;;;;4590504;19;20451;-69
2023/09/27 06:46:41;;;;;;;40.10;35.95;;;18.10;99.90;;;;;;4590401;19;20096;-69
2023/09/27 06:48:18;;;;;;;40.75;36.42;;;18.10;99.90;;;;;;4590540;19;20026;-69
2023/09/27 06:49:53;;;;;;;43.05;38.55;;;18.10;99.90;;;;;;4589828;19;20070;-69
2023/09/27 06:51:27;;;;;;;41.10;36.83;;;18.20;99.90;;;;;;4590398;19;20009;-69
2023/09/27 06:53:01;;;;;;;42.25;37.95;;;18.20;99.90;;;;;;4590059;19;20006;-68
2023/09/27 06:54:37;;;;;;;43.67;38.95;;;18.20;99.90;;;;;;4590807;19;20009;-69
2023/09/27 06:56:12;;;;;;;42.90;38.50;;;18.20;99.90;;;;;;4591094;19;20004;-69
2023/09/27 06:57:50;;;;;;;43.13;38.67;;;18.30;99.90;;;;;;4590608;19;20002;-68
2023/09/27 06:59:25;;;;;;;44.85;40.13;;;18.30;99.90;;;;;;4590094;19;20050;-68
2023/09/27 07:00:59;;;;;;;45.13;40.45;;;18.30;99.90;;;;;;4589594;19;20002;-69
2023/09/27 07:02:34;;;;;;;45.53;40.80;;;18.30;99.90;;;;;;4590858;19;20002;-68
2023/09/27 07:04:12;;;;;;;46.10;41.15;;;18.30;99.90;;;;;;4590642;19;20007;-69
2023/09/27 07:05:48;;;;;;;44.00;39.38;;;18.40;99.90;;;;;;4590701;19;20039;-69
2023/09/27 07:07:22;;;;;;;45.55;40.80;;;18.40;99.90;;;;;;4589877;19;20026;-69
2023/09/27 07:08:57;;;;;;;43.47;39.00;;;18.40;99.90;;;;;;4589029;19;20017;-69
2023/09/27 07:10:32;;;;;;;46.28;41.42;;;18.50;99.90;;;;;;4589686;19;20442;-69
2023/09/27 07:12:07;;;;;;;46.97;41.92;;;18.50;99.90;;;;;;4590572;19;20028;-69
2023/09/27 07:13:43;;;;;;;46.08;41.25;;;18.50;99.90;;;;;;4590167;19;20090;-69
2023/09/27 07:15:18;;;;;;;49.33;44.05;;;18.50;99.90;;;;;;4589876;19;20047;-68
2023/09/27 07:16:53;;;;;;;45.45;40.83;;;18.50;99.90;;;;;;4589859;19;20074;-68
2023/09/27 07:18:28;;;;;;;47.30;42.28;;;18.60;99.90;;;;;;4590795;19;20003;-69
2023/09/27 07:20:09;;;;;;;48.42;43.15;;;18.60;99.90;;;;;;4588767;19;20082;-70
2023/09/27 07:21:45;;;;;;;50.05;44.63;;;18.60;99.90;;;;;;4590481;19;20009;-70
2023/09/27 07:23:21;;;;;;;51.40;46.00;;;18.60;99.90;;;;;;4590391;19;20426;-69
2023/09/27 07:24:55;;;;;;;52.45;46.85;;;18.60;99.90;;;;;;4590232;19;20029;-70
2023/09/27 07:26:32;;;;;;;51.30;45.50;;;18.70;99.90;;;;;;4590068;19;20003;-70
2023/09/27 07:28:07;;;;;;;51.10;45.45;;;18.70;99.90;;;;;;4590340;19;20307;-70
2023/09/27 07:29:41;;;;;;;52.08;46.38;;;18.70;99.90;;;;;;4589880;19;20003;-70
2023/09/27 07:31:16;;;;;;;54.28;48.33;;;18.70;99.90;;;;;;4590316;19;20006;-70
2023/09/27 07:32:52;;;;;;;58.00;49.15;;;18.70;99.90;;;;;;4591885;19;20460;-70
2023/09/27 07:34:27;;;;;;;56.50;50.40;;;18.70;99.90;;;;;;4592392;19;20385;-70
2023/09/27 07:36:03;;;;;;;59.45;51.22;;;18.70;99.90;;;;;;4592051;19;20029;-70
2023/09/27 07:37:39;;;;;;;56.38;50.17;;;18.70;99.90;;;;;;4592144;19;20002;-70
2023/09/27 07:39:15;;;;;;;60.78;52.50;;;18.80;99.90;;;;;;4591941;19;20003;-69
2023/09/27 07:40:50;;;;;;;57.92;51.63;;;18.70;99.90;;;;;;4591151;19;20429;-69
2023/09/27 07:42:25;;;;;;;60.78;53.30;;;18.70;99.90;;;;;;4591951;19;20029;-70
2023/09/27 07:44:01;;;;;;;65.07;55.40;;;18.80;99.90;;;;;;4590253;19;19994;-69
2023/09/27 07:45:38;;;;;;;62.47;55.33;;;18.70;99.90;;;;;;4591462;19;20011;-73
2023/09/27 07:47:13;;;;;;;65.20;56.42;;;18.80;99.90;;;;;;4591545;19;20010;-70
2023/09/27 07:48:48;;;;;;;66.13;57.63;;;18.80;99.90;;;;;;4591568;19;20424;-69
2023/09/27 07:50:26;;;;;;;65.72;56.78;;;18.80;99.90;;;;;;4591091;19;20029;-69
2023/09/27 07:52:05;;;;;;;65.15;58.17;;;18.80;99.90;;;;;;4590169;19;20011;-69
2023/09/27 07:53:39;;;;;;;63.17;56.22;;;18.80;99.90;;;;;;4591327;19;19995;-70
2023/09/27 07:55:14;;;;;;;63.88;56.55;;;18.80;99.90;;;;;;4591817;19;20003;-69
2023/09/27 07:56:49;;;;;;;66.55;55.83;;;18.80;99.90;;;;;;4590359;19;20027;-69
2023/09/27 07:58:23;;;;;;;67.63;58.08;;;18.80;99.90;;;;;;4591681;19;20009;-69
2023/09/27 07:59:58;;;;;;;66.15;56.70;;;18.80;99.90;;;;;;4590835;19;20006;-70
2023/09/27 08:01:34;;;;;;;67.00;59.67;;;18.80;99.90;;;;;;4591663;19;20014;-70
2023/09/27 08:03:15;;;;;;;65.75;55.58;;;18.80;99.90;;;;;;4590648;19;20006;-70
2023/09/27 08:04:49;;;;;;;68.30;58.72;;;18.80;99.90;;;;;;4590343;19;20085;-70
2023/09/27 08:06:25;;;;;;;65.32;58.15;;;18.80;99.90;;;;;;4591352;19;20341;-70
2023/09/27 08:08:00;;;;;;;63.60;56.22;;;18.80;99.90;;;;;;4590238;19;20473;-69
2023/09/27 08:09:38;;;;;;;60.13;53.53;;;18.90;99.90;;;;;;4591145;19;20344;-70
2023/09/27 08:11:15;;;;;;;61.42;53.28;;;18.90;99.90;;;;;;4591530;19;20014;-69
2023/09/27 08:12:50;;;;;;;62.60;53.67;;;19.00;99.90;;;;;;4591642;19;20011;-69
2023/09/27 08:14:26;;;;;;;60.30;53.22;;;19.00;99.90;;;;;;4591506;19;20002;-70
2023/09/27 08:16:06;;;;;;;59.30;52.85;;;19.00;99.90;;;;;;4591770;19;20006;-70
2023/09/27 08:17:42;;;;;;;55.33;48.95;;;19.10;99.90;;;;;;4591538;19;20011;-69
2023/09/27 08:19:15;;;;;;;53.28;47.60;;;19.00;99.90;;;;;;4591873;19;20432;-70
2023/09/27 08:21:02;;;;;;;53.45;46.35;;;19.10;99.90;;;;;;4594093;19;20025;-70
2023/09/27 08:22:36;;;;;;;52.63;46.95;;;19.10;99.90;;;;;;4594606;19;20014;-69
2023/09/27 08:24:11;;;;;;;52.50;46.90;;;19.10;99.90;;;;;;4594922;19;20005;-70
2023/09/27 08:25:48;;;;;;;48.38;43.38;;;19.10;99.90;;;;;;4595956;19;20010;-70
2023/09/27 08:27:22;;;;;;;47.53;42.63;;;19.20;99.90;;;;;;4596260;19;20023;-70
2023/09/27 08:28:56;;;;;;;46.83;41.80;;;19.20;99.90;;;;;;4596105;19;20029;-70
2023/09/27 08:30:34;;;;;;;44.20;39.45;;;19.20;99.90;;;;;;4595065;19;20089;-70
2023/09/27 08:32:08;;;;;;;45.50;40.75;;;19.20;99.90;;;;;;4595790;19;20009;-70
2023/09/27 08:33:42;;;;;;;42.80;38.22;;;19.30;99.90;;;;;;4596079;19;19995;-70
2023/09/27 08:35:18;;;;;;;40.50;36.45;;;19.30;99.90;;;;;;4596068;19;20078;-70
2023/09/27 08:36:52;;;;;;;42.85;38.25;;;19.30;99.90;;;;;;4595703;19;20098;-70